sensor_id;sensor_type;location;lat;lon;timestamp;P1;durP1;ratioP1;P2;durP2;ratioP2
44120;SDS011;29783;52.504;13.478;2023-12-28T00:00:03;9.25;;;3.63;;
44120;SDS011;29783;52.504;13.478;2023-12-28T00:02:30;9.38;;;3.85;;
44120;SDS011;29783;52.504;13.478;2023-12-28T00:04:55;12.48;;;3.45;;
44120;SDS011;29783;52.504;13.478;2023-12-28T00:07:21;13.45;;;3.40;;
44120;SDS011;29783;52.504;13.478;2023-12-28T00:09:47;8.98;;;3.22;;
44120;SDS011;29783;52.504;13.478;2023-12-28T00:12:12;7.50;;;3.25;;
44120;SDS011;29783;52.504;13.478;2023-12-28T00:14:38;6.68;;;3.13;;
44120;SDS011;29783;52.504;13.478;2023-12-28T00:17:03;9.90;;;3.50;;
44120;SDS011;29783;52.504;13.478;2023-12-28T00:19:29;7.63;;;3.40;;
44120;SDS011;29783;52.504;13.478;2023-12-28T00:21:54;13.07;;;3.75;;
44120;SDS011;29783;52.504;13.478;2023-12-28T00:24:20;12.57;;;3.70;;
44120;SDS011;29783;52.504;13.478;2023-12-28T00:26:46;7.93;;;3.05;;
44120;SDS011;29783;52.504;13.478;2023-12-28T00:29:11;7.70;;;3.25;;
44120;SDS011;29783;52.504;13.478;2023-12-28T00:31:37;8.60;;;3.42;;
44120;SDS011;29783;52.504;13.478;2023-12-28T00:34:03;13.40;;;3.40;;
44120;SDS011;29783;52.504;13.478;2023-12-28T00:36:28;7.63;;;2.95;;
44120;SDS011;29783;52.504;13.478;2023-12-28T00:38:54;8.77;;;3.00;;
44120;SDS011;29783;52.504;13.478;2023-12-28T00:41:20;9.32;;;3.42;;
44120;SDS011;29783;52.504;13.478;2023-12-28T00:43:45;5.05;;;2.75;;
44120;SDS011;29783;52.504;13.478;2023-12-28T00:46:11;7.63;;;2.85;;
44120;SDS011;29783;52.504;13.478;2023-12-28T00:48:36;10.15;;;3.45;;
44120;SDS011;29783;52.504;13.478;2023-12-28T00:51:02;7.03;;;3.10;;
44120;SDS011;29783;52.504;13.478;2023-12-28T00:53:28;11.05;;;3.00;;
44120;SDS011;29783;52.504;13.478;2023-12-28T00:55:53;6.10;;;2.83;;
44120;SDS011;29783;52.504;13.478;2023-12-28T00:58:19;8.68;;;3.22;;
44120;SDS011;29783;52.504;13.478;2023-12-28T01:00:44;9.75;;;2.88;;
44120;SDS011;29783;52.504;13.478;2023-12-28T01:03:10;7.72;;;2.90;;
44120;SDS011;29783;52.504;13.478;2023-12-28T01:05:36;7.18;;;2.75;;
44120;SDS011;29783;52.504;13.478;2023-12-28T01:08:01;8.00;;;2.97;;
44120;SDS011;29783;52.504;13.478;2023-12-28T01:10:27;8.68;;;3.22;;
44120;SDS011;29783;52.504;13.478;2023-12-28T01:12:53;18.00;;;3.58;;
44120;SDS011;29783;52.504;13.478;2023-12-28T01:15:18;9.18;;;3.10;;
44120;SDS011;29783;52.504;13.478;2023-12-28T01:17:45;6.80;;;2.60;;
44120;SDS011;29783;52.504;13.478;2023-12-28T01:20:11;8.55;;;3.15;;
44120;SDS011;29783;52.504;13.478;2023-12-28T01:22:37;9.88;;;3.50;;
44120;SDS011;29783;52.504;13.478;2023-12-28T01:25:02;9.60;;;2.97;;
44120;SDS011;29783;52.504;13.478;2023-12-28T01:27:28;6.22;;;3.17;;
44120;SDS011;29783;52.504;13.478;2023-12-28T01:29:54;9.05;;;3.53;;
44120;SDS011;29783;52.504;13.478;2023-12-28T01:32:20;8.75;;;3.10;;
44120;SDS011;29783;52.504;13.478;2023-12-28T01:34:45;5.65;;;2.83;;
44120;SDS011;29783;52.504;13.478;2023-12-28T01:37:11;5.65;;;3.13;;
44120;SDS011;29783;52.504;13.478;2023-12-28T01:39:36;8.80;;;3.72;;
44120;SDS011;29783;52.504;13.478;2023-12-28T01:42:02;10.60;;;3.65;;
44120;SDS011;29783;52.504;13.478;2023-12-28T01:44:29;12.10;;;3.60;;
44120;SDS011;29783;52.504;13.478;2023-12-28T01:46:54;5.95;;;3.13;;
44120;SDS011;29783;52.504;13.478;2023-12-28T01:49:20;8.05;;;3.78;;
44120;SDS011;29783;52.504;13.478;2023-12-28T01:51:46;6.60;;;3.38;;
44120;SDS011;29783;52.504;13.478;2023-12-28T01:54:13;5.15;;;2.80;;
44120;SDS011;29783;52.504;13.478;2023-12-28T01:56:40;8.07;;;3.17;;
44120;SDS011;29783;52.504;13.478;2023-12-28T01:59:05;9.73;;;3.38;;
44120;SDS011;29783;52.504;13.478;2023-12-28T02:01:31;6.55;;;2.97;;
44120;SDS011;29783;52.504;13.478;2023-12-28T02:03:57;7.82;;;2.92;;
44120;SDS011;29783;52.504;13.478;2023-12-28T02:06:23;9.77;;;3.35;;
44120;SDS011;29783;52.504;13.478;2023-12-28T02:08:49;6.72;;;3.00;;
44120;SDS011;29783;52.504;13.478;2023-12-28T02:11:15;8.13;;;2.80;;
44120;SDS011;29783;52.504;13.478;2023-12-28T02:13:41;6.93;;;2.85;;
44120;SDS011;29783;52.504;13.478;2023-12-28T02:16:09;6.80;;;2.67;;
44120;SDS011;29783;52.504;13.478;2023-12-28T02:18:50;5.97;;;2.50;;
44120;SDS011;29783;52.504;13.478;2023-12-28T02:21:20;5.72;;;2.63;;
44120;SDS011;29783;52.504;13.478;2023-12-28T02:23:49;4.88;;;2.22;;
44120;SDS011;29783;52.504;13.478;2023-12-28T02:26:15;4.38;;;2.33;;
44120;SDS011;29783;52.504;13.478;2023-12-28T02:28:41;3.63;;;2.10;;
44120;SDS011;29783;52.504;13.478;2023-12-28T02:31:07;4.13;;;2.17;;
44120;SDS011;29783;52.504;13.478;2023-12-28T02:33:48;3.97;;;1.70;;
44120;SDS011;29783;52.504;13.478;2023-12-28T02:36:19;4.90;;;1.92;;
44120;SDS011;29783;52.504;13.478;2023-12-28T02:38:48;4.03;;;1.90;;
44120;SDS011;29783;52.504;13.478;2023-12-28T02:41:16;2.72;;;1.60;;
44120;SDS011;29783;52.504;13.478;2023-12-28T02:43:42;5.43;;;2.85;;
44120;SDS011;29783;52.504;13.478;2023-12-28T02:46:08;7.20;;;1.70;;
44120;SDS011;29783;52.504;13.478;2023-12-28T02:48:34;3.25;;;1.40;;
44120;SDS011;29783;52.504;13.478;2023-12-28T02:50:59;5.75;;;1.35;;
44120;SDS011;29783;52.504;13.478;2023-12-28T02:53:25;2.10;;;1.30;;
44120;SDS011;29783;52.504;13.478;2023-12-28T02:55:50;6.05;;;1.70;;
44120;SDS011;29783;52.504;13.478;2023-12-28T02:58:16;3.40;;;1.30;;
44120;SDS011;29783;52.504;13.478;2023-12-28T03:00:41;2.72;;;1.30;;
44120;SDS011;29783;52.504;13.478;2023-12-28T03:03:07;2.70;;;1.38;;
44120;SDS011;29783;52.504;13.478;2023-12-28T03:05:33;3.45;;;1.48;;
44120;SDS011;29783;52.504;13.478;2023-12-28T03:07:59;2.78;;;1.10;;
44120;SDS011;29783;52.504;13.478;2023-12-28T03:10:24;3.03;;;1.10;;
44120;SDS011;29783;52.504;13.478;2023-12-28T03:12:50;3.53;;;1.45;;
44120;SDS011;29783;52.504;13.478;2023-12-28T03:15:16;3.22;;;1.27;;
44120;SDS011;29783;52.504;13.478;2023-12-28T03:17:41;3.90;;;1.33;;
44120;SDS011;29783;52.504;13.478;2023-12-28T03:20:08;2.50;;;1.38;;
44120;SDS011;29783;52.504;13.478;2023-12-28T03:22:35;5.00;;;1.10;;
44120;SDS011;29783;52.504;13.478;2023-12-28T03:25:00;1.83;;;1.10;;
44120;SDS011;29783;52.504;13.478;2023-12-28T03:27:26;3.22;;;1.35;;
44120;SDS011;29783;52.504;13.478;2023-12-28T03:29:52;3.42;;;1.02;;
44120;SDS011;29783;52.504;13.478;2023-12-28T03:32:17;1.88;;;1.15;;
44120;SDS011;29783;52.504;13.478;2023-12-28T03:34:43;3.10;;;1.25;;
44120;SDS011;29783;52.504;13.478;2023-12-28T03:37:08;3.08;;;1.10;;
44120;SDS011;29783;52.504;13.478;2023-12-28T03:39:36;4.00;;;1.17;;
44120;SDS011;29783;52.504;13.478;2023-12-28T03:42:02;3.78;;;1.55;;
44120;SDS011;29783;52.504;13.478;2023-12-28T03:44:27;1.50;;;1.10;;
44120;SDS011;29783;52.504;13.478;2023-12-28T03:46:53;1.45;;;0.90;;
44120;SDS011;29783;52.504;13.478;2023-12-28T03:49:19;1.77;;;1.13;;
44120;SDS011;29783;52.504;13.478;2023-12-28T03:51:45;3.85;;;1.10;;
44120;SDS011;29783;52.504;13.478;2023-12-28T03:54:12;4.63;;;1.30;;
44120;SDS011;29783;52.504;13.478;2023-12-28T03:56:37;1.23;;;1.10;;
44120;SDS011;29783;52.504;13.478;2023-12-28T03:59:05;1.77;;;1.05;;
44120;SDS011;29783;52.504;13.478;2023-12-28T04:01:34;1.17;;;1.05;;
44120;SDS011;29783;52.504;13.478;2023-12-28T04:04:00;2.28;;;1.17;;
44120;SDS011;29783;52.504;13.478;2023-12-28T04:06:26;2.03;;;0.93;;
44120;SDS011;29783;52.504;13.478;2023-12-28T04:08:52;3.50;;;1.85;;
44120;SDS011;29783;52.504;13.478;2023-12-28T04:11:17;1.50;;;1.02;;
44120;SDS011;29783;52.504;13.478;2023-12-28T04:13:43;3.70;;;1.15;;
44120;SDS011;29783;52.504;13.478;2023-12-28T04:16:11;2.50;;;0.90;;
44120;SDS011;29783;52.504;13.478;2023-12-28T04:18:43;7.00;;;1.10;;
44120;SDS011;29783;52.504;13.478;2023-12-28T04:21:10;2.85;;;1.17;;
44120;SDS011;29783;52.504;13.478;2023-12-28T04:23:37;2.63;;;1.25;;
44120;SDS011;29783;52.504;13.478;2023-12-28T04:26:03;1.63;;;0.95;;
44120;SDS011;29783;52.504;13.478;2023-12-28T04:28:28;2.72;;;1.30;;
44120;SDS011;29783;52.504;13.478;2023-12-28T04:30:54;2.75;;;1.20;;
44120;SDS011;29783;52.504;13.478;2023-12-28T04:33:20;1.33;;;1.00;;
44120;SDS011;29783;52.504;13.478;2023-12-28T04:35:46;2.70;;;1.05;;
44120;SDS011;29783;52.504;13.478;2023-12-28T04:38:11;2.70;;;1.30;;
44120;SDS011;29783;52.504;13.478;2023-12-28T04:40:37;3.60;;;1.30;;
44120;SDS011;29783;52.504;13.478;2023-12-28T04:43:03;1.48;;;0.80;;
44120;SDS011;29783;52.504;13.478;2023-12-28T04:45:29;2.35;;;1.25;;
44120;SDS011;29783;52.504;13.478;2023-12-28T04:47:54;2.38;;;1.35;;
44120;SDS011;29783;52.504;13.478;2023-12-28T04:50:20;3.20;;;1.10;;
44120;SDS011;29783;52.504;13.478;2023-12-28T04:52:46;1.83;;;0.93;;
44120;SDS011;29783;52.504;13.478;2023-12-28T04:55:11;3.35;;;1.10;;
44120;SDS011;29783;52.504;13.478;2023-12-28T04:57:37;2.85;;;0.88;;
44120;SDS011;29783;52.504;13.478;2023-12-28T05:00:02;1.98;;;1.20;;
44120;SDS011;29783;52.504;13.478;2023-12-28T05:02:29;1.85;;;1.00;;
44120;SDS011;29783;52.504;13.478;2023-12-28T05:04:54;3.17;;;1.10;;
44120;SDS011;29783;52.504;13.478;2023-12-28T05:07:20;1.23;;;0.85;;
44120;SDS011;29783;52.504;13.478;2023-12-28T05:09:46;1.77;;;1.10;;
44120;SDS011;29783;52.504;13.478;2023-12-28T05:12:11;2.63;;;1.10;;
44120;SDS011;29783;52.504;13.478;2023-12-28T05:14:37;5.15;;;1.20;;
44120;SDS011;29783;52.504;13.478;2023-12-28T05:17:02;2.10;;;1.00;;
44120;SDS011;29783;52.504;13.478;2023-12-28T05:19:28;3.55;;;1.42;;
44120;SDS011;29783;52.504;13.478;2023-12-28T05:21:54;1.75;;;1.20;;
44120;SDS011;29783;52.504;13.478;2023-12-28T05:24:20;7.20;;;1.10;;
44120;SDS011;29783;52.504;13.478;2023-12-28T05:26:45;2.47;;;1.10;;
44120;SDS011;29783;52.504;13.478;2023-12-28T05:29:11;2.15;;;0.98;;
44120;SDS011;29783;52.504;13.478;2023-12-28T05:31:36;2.35;;;1.45;;
44120;SDS011;29783;52.504;13.478;2023-12-28T05:34:02;2.17;;;1.50;;
44120;SDS011;29783;52.504;13.478;2023-12-28T05:36:28;3.28;;;1.38;;
44120;SDS011;29783;52.504;13.478;2023-12-28T05:38:53;2.80;;;1.38;;
44120;SDS011;29783;52.504;13.478;2023-12-28T05:41:19;2.25;;;0.90;;
44120;SDS011;29783;52.504;13.478;2023-12-28T05:43:45;3.40;;;1.20;;
44120;SDS011;29783;52.504;13.478;2023-12-28T05:46:11;3.08;;;1.30;;
44120;SDS011;29783;52.504;13.478;2023-12-28T05:48:37;2.90;;;1.30;;
44120;SDS011;29783;52.504;13.478;2023-12-28T05:51:02;8.07;;;1.25;;
44120;SDS011;29783;52.504;13.478;2023-12-28T05:53:28;3.15;;;1.30;;
44120;SDS011;29783;52.504;13.478;2023-12-28T05:55:54;3.05;;;1.35;;
44120;SDS011;29783;52.504;13.478;2023-12-28T05:58:20;3.13;;;1.20;;
44120;SDS011;29783;52.504;13.478;2023-12-28T06:00:45;2.42;;;0.93;;
44120;SDS011;29783;52.504;13.478;2023-12-28T06:03:16;4.40;;;1.35;;
44120;SDS011;29783;52.504;13.478;2023-12-28T06:05:42;3.15;;;0.98;;
44120;SDS011;29783;52.504;13.478;2023-12-28T06:08:07;3.15;;;1.65;;
44120;SDS011;29783;52.504;13.478;2023-12-28T06:10:33;3.08;;;1.23;;
44120;SDS011;29783;52.504;13.478;2023-12-28T06:12:58;2.83;;;1.23;;
44120;SDS011;29783;52.504;13.478;2023-12-28T06:15:24;3.80;;;1.23;;
44120;SDS011;29783;52.504;13.478;2023-12-28T06:17:49;3.20;;;1.30;;
44120;SDS011;29783;52.504;13.478;2023-12-28T06:20:15;2.60;;;1.23;;
44120;SDS011;29783;52.504;13.478;2023-12-28T06:22:41;1.00;;;0.50;;
44120;SDS011;29783;52.504;13.478;2023-12-28T06:25:07;2.17;;;1.10;;
44120;SDS011;29783;52.504;13.478;2023-12-28T06:27:33;1.23;;;0.70;;
44120;SDS011;29783;52.504;13.478;2023-12-28T06:29:58;4.13;;;1.10;;
44120;SDS011;29783;52.504;13.478;2023-12-28T06:32:24;3.03;;;1.25;;
44120;SDS011;29783;52.504;13.478;2023-12-28T06:34:50;1.80;;;1.30;;
44120;SDS011;29783;52.504;13.478;2023-12-28T06:37:15;2.45;;;1.10;;
44120;SDS011;29783;52.504;13.478;2023-12-28T06:39:41;4.55;;;1.63;;
44120;SDS011;29783;52.504;13.478;2023-12-28T06:42:07;2.35;;;1.15;;
44120;SDS011;29783;52.504;13.478;2023-12-28T06:44:32;3.65;;;1.25;;
44120;SDS011;29783;52.504;13.478;2023-12-28T06:46:58;2.10;;;1.15;;
44120;SDS011;29783;52.504;13.478;2023-12-28T06:49:24;3.97;;;1.33;;
44120;SDS011;29783;52.504;13.478;2023-12-28T06:51:50;4.30;;;1.17;;
44120;SDS011;29783;52.504;13.478;2023-12-28T06:54:16;2.40;;;1.02;;
44120;SDS011;29783;52.504;13.478;2023-12-28T06:56:42;4.00;;;1.10;;
44120;SDS011;29783;52.504;13.478;2023-12-28T06:59:07;2.97;;;0.90;;
44120;SDS011;29783;52.504;13.478;2023-12-28T07:01:37;1.85;;;1.00;;
44120;SDS011;29783;52.504;13.478;2023-12-28T07:04:03;2.10;;;1.13;;
44120;SDS011;29783;52.504;13.478;2023-12-28T07:06:29;2.92;;;1.40;;
44120;SDS011;29783;52.504;13.478;2023-12-28T07:08:54;4.32;;;1.25;;
44120;SDS011;29783;52.504;13.478;2023-12-28T07:11:20;2.30;;;1.20;;
44120;SDS011;29783;52.504;13.478;2023-12-28T07:13:46;3.20;;;1.33;;
44120;SDS011;29783;52.504;13.478;2023-12-28T07:16:12;4.78;;;1.65;;
44120;SDS011;29783;52.504;13.478;2023-12-28T07:18:38;3.85;;;1.30;;
44120;SDS011;29783;52.504;13.478;2023-12-28T07:21:03;3.20;;;1.23;;
44120;SDS011;29783;52.504;13.478;2023-12-28T07:23:31;3.05;;;1.48;;
44120;SDS011;29783;52.504;13.478;2023-12-28T07:25:56;5.07;;;0.95;;
44120;SDS011;29783;52.504;13.478;2023-12-28T07:28:22;2.53;;;1.25;;
44120;SDS011;29783;52.504;13.478;2023-12-28T07:30:48;4.28;;;1.40;;
44120;SDS011;29783;52.504;13.478;2023-12-28T07:33:13;2.65;;;1.30;;
44120;SDS011;29783;52.504;13.478;2023-12-28T07:35:40;2.10;;;1.20;;
44120;SDS011;29783;52.504;13.478;2023-12-28T07:38:06;2.13;;;1.48;;
44120;SDS011;29783;52.504;13.478;2023-12-28T07:40:32;5.05;;;1.30;;
44120;SDS011;29783;52.504;13.478;2023-12-28T07:42:57;3.85;;;1.23;;
44120;SDS011;29783;52.504;13.478;2023-12-28T07:45:23;1.40;;;1.00;;
44120;SDS011;29783;52.504;13.478;2023-12-28T07:47:52;2.67;;;1.63;;
44120;SDS011;29783;52.504;13.478;2023-12-28T07:50:17;2.55;;;1.10;;
44120;SDS011;29783;52.504;13.478;2023-12-28T07:52:44;5.55;;;1.63;;
44120;SDS011;29783;52.504;13.478;2023-12-28T07:55:11;2.75;;;1.20;;
44120;SDS011;29783;52.504;13.478;2023-12-28T07:57:37;2.20;;;1.23;;
44120;SDS011;29783;52.504;13.478;2023-12-28T08:00:02;3.20;;;1.50;;
44120;SDS011;29783;52.504;13.478;2023-12-28T08:02:28;1.40;;;1.20;;
44120;SDS011;29783;52.504;13.478;2023-12-28T08:04:54;6.07;;;1.20;;
44120;SDS011;29783;52.504;13.478;2023-12-28T08:07:20;1.88;;;1.00;;
44120;SDS011;29783;52.504;13.478;2023-12-28T08:09:45;1.52;;;0.98;;
44120;SDS011;29783;52.504;13.478;2023-12-28T08:12:11;1.83;;;0.95;;
44120;SDS011;29783;52.504;13.478;2023-12-28T08:14:36;1.77;;;1.23;;
44120;SDS011;29783;52.504;13.478;2023-12-28T08:17:02;2.63;;;1.35;;
44120;SDS011;29783;52.504;13.478;2023-12-28T08:19:28;5.38;;;1.42;;
44120;SDS011;29783;52.504;13.478;2023-12-28T08:21:54;4.25;;;1.40;;
44120;SDS011;29783;52.504;13.478;2023-12-28T08:24:19;2.05;;;1.20;;
44120;SDS011;29783;52.504;13.478;2023-12-28T08:26:45;3.50;;;1.70;;
44120;SDS011;29783;52.504;13.478;2023-12-28T08:29:10;4.05;;;1.30;;
44120;SDS011;29783;52.504;13.478;2023-12-28T08:31:36;1.35;;;1.02;;
44120;SDS011;29783;52.504;13.478;2023-12-28T08:34:02;1.38;;;1.10;;
44120;SDS011;29783;52.504;13.478;2023-12-28T08:36:27;5.10;;;1.65;;
44120;SDS011;29783;52.504;13.478;2023-12-28T08:38:54;3.67;;;0.95;;
44120;SDS011;29783;52.504;13.478;2023-12-28T08:41:20;2.20;;;1.20;;
44120;SDS011;29783;52.504;13.478;2023-12-28T08:43:47;2.90;;;1.55;;
44120;SDS011;29783;52.504;13.478;2023-12-28T08:46:13;2.75;;;1.52;;
44120;SDS011;29783;52.504;13.478;2023-12-28T08:48:40;4.47;;;1.52;;
44120;SDS011;29783;52.504;13.478;2023-12-28T08:51:06;1.90;;;1.05;;
44120;SDS011;29783;52.504;13.478;2023-12-28T08:53:31;2.72;;;1.33;;
44120;SDS011;29783;52.504;13.478;2023-12-28T08:55:57;2.80;;;1.50;;
44120;SDS011;29783;52.504;13.478;2023-12-28T08:58:23;2.15;;;1.20;;
44120;SDS011;29783;52.504;13.478;2023-12-28T09:00:48;2.20;;;1.33;;
44120;SDS011;29783;52.504;13.478;2023-12-28T09:03:14;2.45;;;1.40;;
44120;SDS011;29783;52.504;13.478;2023-12-28T09:05:39;1.13;;;1.02;;
44120;SDS011;29783;52.504;13.478;2023-12-28T09:08:05;1.90;;;1.20;;
44120;SDS011;29783;52.504;13.478;2023-12-28T09:10:31;1.33;;;1.13;;
44120;SDS011;29783;52.504;13.478;2023-12-28T09:12:57;2.65;;;1.45;;
44120;SDS011;29783;52.504;13.478;2023-12-28T09:15:22;3.67;;;1.25;;
44120;SDS011;29783;52.504;13.478;2023-12-28T09:17:48;3.25;;;1.48;;
44120;SDS011;29783;52.504;13.478;2023-12-28T09:20:14;3.85;;;1.25;;
44120;SDS011;29783;52.504;13.478;2023-12-28T09:22:40;2.47;;;1.70;;
44120;SDS011;29783;52.504;13.478;2023-12-28T09:25:06;4.60;;;1.90;;
44120;SDS011;29783;52.504;13.478;2023-12-28T09:27:32;2.67;;;1.58;;
44120;SDS011;29783;52.504;13.478;2023-12-28T09:29:57;5.30;;;1.70;;
44120;SDS011;29783;52.504;13.478;2023-12-28T09:32:23;2.58;;;1.60;;
44120;SDS011;29783;52.504;13.478;2023-12-28T09:34:48;3.78;;;1.70;;
44120;SDS011;29783;52.504;13.478;2023-12-28T09:37:14;3.33;;;1.83;;
44120;SDS011;29783;52.504;13.478;2023-12-28T09:39:40;4.55;;;1.55;;
44120;SDS011;29783;52.504;13.478;2023-12-28T09:42:08;5.28;;;2.00;;
44120;SDS011;29783;52.504;13.478;2023-12-28T09:44:41;3.50;;;2.00;;
44120;SDS011;29783;52.504;13.478;2023-12-28T09:47:09;3.92;;;1.70;;
44120;SDS011;29783;52.504;13.478;2023-12-28T09:49:37;2.45;;;1.58;;
44120;SDS011;29783;52.504;13.478;2023-12-28T09:52:04;10.68;;;1.80;;
44120;SDS011;29783;52.504;13.478;2023-12-28T09:54:30;2.83;;;1.65;;
44120;SDS011;29783;52.504;13.478;2023-12-28T09:56:56;5.47;;;1.52;;
44120;SDS011;29783;52.504;13.478;2023-12-28T09:59:23;7.18;;;1.92;;
44120;SDS011;29783;52.504;13.478;2023-12-28T10:01:49;7.03;;;2.05;;
44120;SDS011;29783;52.504;13.478;2023-12-28T10:04:15;4.53;;;1.67;;
44120;SDS011;29783;52.504;13.478;2023-12-28T10:06:41;3.03;;;1.65;;
44120;SDS011;29783;52.504;13.478;2023-12-28T10:09:07;5.60;;;2.05;;
44120;SDS011;29783;52.504;13.478;2023-12-28T10:11:33;2.88;;;1.55;;
44120;SDS011;29783;52.504;13.478;2023-12-28T10:13:58;7.85;;;2.25;;
44120;SDS011;29783;52.504;13.478;2023-12-28T10:16:24;5.03;;;1.90;;
44120;SDS011;29783;52.504;13.478;2023-12-28T10:18:49;5.10;;;1.80;;
44120;SDS011;29783;52.504;13.478;2023-12-28T10:21:15;9.30;;;1.85;;
44120;SDS011;29783;52.504;13.478;2023-12-28T10:23:41;2.30;;;1.50;;
44120;SDS011;29783;52.504;13.478;2023-12-28T10:26:07;1.45;;;1.00;;
44120;SDS011;29783;52.504;13.478;2023-12-28T10:28:36;2.70;;;1.65;;
44120;SDS011;29783;52.504;13.478;2023-12-28T10:31:03;4.55;;;1.70;;
44120;SDS011;29783;52.504;13.478;2023-12-28T10:33:38;8.30;;;2.05;;
44120;SDS011;29783;52.504;13.478;2023-12-28T10:36:07;4.88;;;1.73;;
44120;SDS011;29783;52.504;13.478;2023-12-28T10:38:34;5.30;;;1.75;;
44120;SDS011;29783;52.504;13.478;2023-12-28T10:41:01;2.92;;;1.27;;
44120;SDS011;29783;52.504;13.478;2023-12-28T10:43:31;4.63;;;1.45;;
44120;SDS011;29783;52.504;13.478;2023-12-28T10:46:10;2.97;;;1.90;;
44120;SDS011;29783;52.504;13.478;2023-12-28T10:51:11;3.05;;;1.63;;
44120;SDS011;29783;52.504;13.478;2023-12-28T10:53:42;4.60;;;1.58;;
44120;SDS011;29783;52.504;13.478;2023-12-28T10:58:51;8.05;;;1.92;;
44120;SDS011;29783;52.504;13.478;2023-12-28T11:01:37;3.80;;;2.10;;
44120;SDS011;29783;52.504;13.478;2023-12-28T11:04:07;3.05;;;1.67;;
44120;SDS011;29783;52.504;13.478;2023-12-28T11:06:48;1.30;;;0.80;;
44120;SDS011;29783;52.504;13.478;2023-12-28T11:09:14;4.78;;;1.95;;
44120;SDS011;29783;52.504;13.478;2023-12-28T11:11:41;2.63;;;1.60;;
44120;SDS011;29783;52.504;13.478;2023-12-28T11:14:08;3.42;;;1.40;;
44120;SDS011;29783;52.504;13.478;2023-12-28T11:16:34;1.88;;;1.35;;
44120;SDS011;29783;52.504;13.478;2023-12-28T11:19:02;2.45;;;1.23;;
44120;SDS011;29783;52.504;13.478;2023-12-28T11:21:29;4.93;;;2.38;;
44120;SDS011;29783;52.504;13.478;2023-12-28T11:23:55;3.45;;;1.75;;
44120;SDS011;29783;52.504;13.478;2023-12-28T11:26:22;4.15;;;2.10;;
44120;SDS011;29783;52.504;13.478;2023-12-28T11:28:48;3.80;;;1.92;;
44120;SDS011;29783;52.504;13.478;2023-12-28T11:31:14;3.03;;;1.40;;
44120;SDS011;29783;52.504;13.478;2023-12-28T11:33:47;3.03;;;1.65;;
44120;SDS011;29783;52.504;13.478;2023-12-28T11:36:22;3.35;;;1.90;;
44120;SDS011;29783;52.504;13.478;2023-12-28T11:38:55;3.00;;;1.90;;
44120;SDS011;29783;52.504;13.478;2023-12-28T11:41:26;4.22;;;1.77;;
44120;SDS011;29783;52.504;13.478;2023-12-28T11:43:54;9.13;;;2.00;;
44120;SDS011;29783;52.504;13.478;2023-12-28T11:46:20;6.53;;;1.65;;
44120;SDS011;29783;52.504;13.478;2023-12-28T11:48:46;7.35;;;1.98;;
44120;SDS011;29783;52.504;13.478;2023-12-28T11:51:12;4.60;;;1.90;;
44120;SDS011;29783;52.504;13.478;2023-12-28T11:53:38;3.90;;;1.85;;
44120;SDS011;29783;52.504;13.478;2023-12-28T11:56:04;2.28;;;1.52;;
44120;SDS011;29783;52.504;13.478;2023-12-28T11:58:34;3.20;;;1.60;;
44120;SDS011;29783;52.504;13.478;2023-12-28T12:01:01;3.47;;;1.60;;
44120;SDS011;29783;52.504;13.478;2023-12-28T12:03:29;2.95;;;1.42;;
44120;SDS011;29783;52.504;13.478;2023-12-28T12:05:55;2.38;;;1.35;;
44120;SDS011;29783;52.504;13.478;2023-12-28T12:08:22;2.78;;;2.00;;
44120;SDS011;29783;52.504;13.478;2023-12-28T12:10:59;4.43;;;1.83;;
44120;SDS011;29783;52.504;13.478;2023-12-28T12:13:28;4.68;;;2.10;;
44120;SDS011;29783;52.504;13.478;2023-12-28T12:15:55;5.18;;;1.75;;
44120;SDS011;29783;52.504;13.478;2023-12-28T12:18:21;3.53;;;1.73;;
44120;SDS011;29783;52.504;13.478;2023-12-28T12:20:47;6.00;;;1.63;;
44120;SDS011;29783;52.504;13.478;2023-12-28T12:23:13;2.83;;;1.48;;
44120;SDS011;29783;52.504;13.478;2023-12-28T12:25:40;3.92;;;1.80;;
44120;SDS011;29783;52.504;13.478;2023-12-28T12:28:07;2.33;;;1.55;;
44120;SDS011;29783;52.504;13.478;2023-12-28T12:30:33;5.22;;;1.50;;
44120;SDS011;29783;52.504;13.478;2023-12-28T12:32:59;6.90;;;2.50;;
44120;SDS011;29783;52.504;13.478;2023-12-28T12:35:25;5.07;;;1.40;;
44120;SDS011;29783;52.504;13.478;2023-12-28T12:37:50;4.35;;;1.67;;
44120;SDS011;29783;52.504;13.478;2023-12-28T12:40:17;6.28;;;1.70;;
44120;SDS011;29783;52.504;13.478;2023-12-28T12:42:55;3.72;;;1.48;;
44120;SDS011;29783;52.504;13.478;2023-12-28T12:45:21;5.10;;;1.23;;
44120;SDS011;29783;52.504;13.478;2023-12-28T12:47:47;2.97;;;1.48;;
44120;SDS011;29783;52.504;13.478;2023-12-28T12:50:13;4.00;;;1.90;;
44120;SDS011;29783;52.504;13.478;2023-12-28T12:52:41;2.38;;;1.10;;
44120;SDS011;29783;52.504;13.478;2023-12-28T12:55:10;4.95;;;1.33;;
44120;SDS011;29783;52.504;13.478;2023-12-28T12:57:39;4.38;;;1.15;;
44120;SDS011;29783;52.504;13.478;2023-12-28T13:00:05;5.82;;;1.50;;
44120;SDS011;29783;52.504;13.478;2023-12-28T13:02:34;6.13;;;1.75;;
44120;SDS011;29783;52.504;13.478;2023-12-28T13:05:03;7.78;;;1.55;;
44120;SDS011;29783;52.504;13.478;2023-12-28T13:07:30;4.43;;;1.65;;
44120;SDS011;29783;52.504;13.478;2023-12-28T13:09:57;5.70;;;1.50;;
44120;SDS011;29783;52.504;13.478;2023-12-28T13:12:22;4.82;;;1.40;;
44120;SDS011;29783;52.504;13.478;2023-12-28T13:14:49;3.10;;;1.63;;
44120;SDS011;29783;52.504;13.478;2023-12-28T13:17:14;3.50;;;1.80;;
44120;SDS011;29783;52.504;13.478;2023-12-28T13:19:41;4.88;;;1.40;;
44120;SDS011;29783;52.504;13.478;2023-12-28T13:22:07;6.38;;;1.40;;
44120;SDS011;29783;52.504;13.478;2023-12-28T13:24:32;4.90;;;1.63;;
44120;SDS011;29783;52.504;13.478;2023-12-28T13:26:58;2.88;;;1.50;;
44120;SDS011;29783;52.504;13.478;2023-12-28T13:29:24;3.35;;;1.38;;
44120;SDS011;29783;52.504;13.478;2023-12-28T13:31:49;3.65;;;1.40;;
44120;SDS011;29783;52.504;13.478;2023-12-28T13:34:16;2.75;;;1.50;;
44120;SDS011;29783;52.504;13.478;2023-12-28T13:36:43;4.15;;;1.15;;
44120;SDS011;29783;52.504;13.478;2023-12-28T13:39:09;5.97;;;1.60;;
44120;SDS011;29783;52.504;13.478;2023-12-28T13:41:37;4.00;;;1.35;;
44120;SDS011;29783;52.504;13.478;2023-12-28T13:44:03;3.63;;;1.38;;
44120;SDS011;29783;52.504;13.478;2023-12-28T13:46:29;11.23;;;1.85;;
44120;SDS011;29783;52.504;13.478;2023-12-28T13:48:55;4.30;;;1.55;;
44120;SDS011;29783;52.504;13.478;2023-12-28T13:51:22;1.02;;;0.60;;
44120;SDS011;29783;52.504;13.478;2023-12-28T13:53:47;4.40;;;1.58;;
44120;SDS011;29783;52.504;13.478;2023-12-28T13:56:13;3.42;;;1.55;;
44120;SDS011;29783;52.504;13.478;2023-12-28T13:58:39;7.00;;;1.38;;
44120;SDS011;29783;52.504;13.478;2023-12-28T14:01:04;4.85;;;1.48;;
44120;SDS011;29783;52.504;13.478;2023-12-28T14:03:30;5.15;;;1.98;;
44120;SDS011;29783;52.504;13.478;2023-12-28T14:05:55;5.35;;;1.20;;
44120;SDS011;29783;52.504;13.478;2023-12-28T14:08:21;1.88;;;1.10;;
44120;SDS011;29783;52.504;13.478;2023-12-28T14:10:46;3.42;;;1.40;;
44120;SDS011;29783;52.504;13.478;2023-12-28T14:13:12;8.57;;;1.80;;
44120;SDS011;29783;52.504;13.478;2023-12-28T14:15:38;3.80;;;1.83;;
44120;SDS011;29783;52.504;13.478;2023-12-28T14:18:04;5.85;;;1.40;;
44120;SDS011;29783;52.504;13.478;2023-12-28T14:20:31;2.95;;;1.55;;
44120;SDS011;29783;52.504;13.478;2023-12-28T14:22:57;4.30;;;1.75;;
44120;SDS011;29783;52.504;13.478;2023-12-28T14:25:23;6.03;;;1.60;;
44120;SDS011;29783;52.504;13.478;2023-12-28T14:27:49;4.70;;;1.55;;
44120;SDS011;29783;52.504;13.478;2023-12-28T14:30:15;4.40;;;1.58;;
44120;SDS011;29783;52.504;13.478;2023-12-28T14:32:41;4.80;;;1.90;;